sensor_id;sensor_type;location;lat;lon;timestamp;temperature;humidity
26021;DHT22;13798;48.858;9.092;2023-10-13T04:06:13;410.20;2355.20
26021;DHT22;13798;48.858;9.092;2023-10-13T04:08:42;409.90;2355.20
26021;DHT22;13798;48.858;9.092;2023-10-13T04:11:07;409.70;2355.20
26021;DHT22;13798;48.858;9.092;2023-10-13T04:13:51;409.90;2355.20
26021;DHT22;13798;48.858;9.092;2023-10-13T04:16:35;409.80;2355.20
26021;DHT22;13798;48.858;9.092;2023-10-13T04:19:02;409.70;2355.20
26021;DHT22;13798;48.858;9.092;2023-10-13T04:21:28;409.60;2355.20
26021;DHT22;13798;48.858;9.092;2023-10-13T04:24:21;409.90;2355.20
26021;DHT22;13798;48.858;9.092;2023-10-13T04:27:05;384.90;2329.60
26021;DHT22;13798;48.858;9.092;2023-10-13T04:29:40;409.60;2355.20
26021;DHT22;13798;48.858;9.092;2023-10-13T04:32:25;384.70;2329.60
26021;DHT22;13798;48.858;9.092;2023-10-13T04:35:04;384.30;2329.60
26021;DHT22;13798;48.858;9.092;2023-10-13T04:37:44;384.20;2329.60
26021;DHT22;13798;48.858;9.092;2023-10-13T11:56:57;845.50;1459.20
26021;DHT22;13798;48.858;9.092;2023-10-13T11:59:23;845.20;1459.20
26021;DHT22;13798;48.858;9.092;2023-10-13T12:01:52;870.60;1382.40
26021;DHT22;13798;48.858;9.092;2023-10-13T12:04:37;845.50;1356.80
26021;DHT22;13798;48.858;9.092;2023-10-13T12:07:14;819.90;1382.40
26021;DHT22;13798;48.858;9.092;2023-10-13T12:09:53;819.90;1382.40
26021;DHT22;13798;48.858;9.092;2023-10-13T12:12:26;845.30;1356.80
26021;DHT22;13798;48.858;9.092;2023-10-13T12:14:52;845.00;1356.80
26021;DHT22;13798;48.858;9.092;2023-10-13T12:17:19;845.20;1331.20
26021;DHT22;13798;48.858;9.092;2023-10-13T12:19:56;845.20;1356.80
26021;DHT22;13798;48.858;9.092;2023-10-13T12:22:22;845.70;1331.20
26021;DHT22;13798;48.858;9.092;2023-10-13T12:25:00;870.60;1305.60
26021;DHT22;13798;48.858;9.092;2023-10-13T12:27:30;845.40;1356.80
26021;DHT22;13798;48.858;9.092;2023-10-13T12:30:11;768.90;1459.20
26021;DHT22;13798;48.858;9.092;2023-10-13T12:32:39;845.00;1382.40
26021;DHT22;13798;48.858;9.092;2023-10-13T12:35:10;845.30;1408.00
26021;DHT22;13798;48.858;9.092;2023-10-13T12:37:35;871.10;1305.60
26021;DHT22;13798;48.858;9.092;2023-10-13T12:40:07;922.10;1228.80
26021;DHT22;13798;48.858;9.092;2023-10-13T12:42:52;921.90;1203.20
26021;DHT22;13798;48.858;9.092;2023-10-13T12:45:50;871.20;1254.40
26021;DHT22;13798;48.858;9.092;2023-10-13T12:48:36;921.70;1177.60
26021;DHT22;13798;48.858;9.092;2023-10-13T12:51:21;921.80;1152.00
26021;DHT22;13798;48.858;9.092;2023-10-13T12:54:00;921.60;1152.00
26021;DHT22;13798;48.858;9.092;2023-10-13T12:56:48;921.70;1126.40
26021;DHT22;13798;48.858;9.092;2023-10-13T12:59:14;896.20;1100.80
26021;DHT22;13798;48.858;9.092;2023-10-13T13:01:40;896.70;1100.80
26021;DHT22;13798;48.858;9.092;2023-10-13T13:04:12;870.90;1126.40
26021;DHT22;13798;48.858;9.092;2023-10-13T13:06:44;870.70;1100.80
26021;DHT22;13798;48.858;9.092;2023-10-13T13:09:09;896.80;1100.80
26021;DHT22;13798;48.858;9.092;2023-10-13T13:11:35;922.10;1100.80
26021;DHT22;13798;48.858;9.092;2023-10-13T13:14:05;922.00;1075.20
26021;DHT22;13798;48.858;9.092;2023-10-13T13:16:33;921.90;1075.20
26021;DHT22;13798;48.858;9.092;2023-10-13T13:18:59;922.20;1049.60
26021;DHT22;13798;48.858;9.092;2023-10-13T13:21:28;896.90;1049.60
26021;DHT22;13798;48.858;9.092;2023-10-13T13:23:54;896.30;1049.60
26021;DHT22;13798;48.858;9.092;2023-10-13T13:26:23;896.30;1024.00
26021;DHT22;13798;48.858;9.092;2023-10-13T13:28:49;871.30;1049.60
26021;DHT22;13798;48.858;9.092;2023-10-13T13:31:18;896.50;1049.60
26021;DHT22;13798;48.858;9.092;2023-10-13T13:33:44;922.00;1049.60
26021;DHT22;13798;48.858;9.092;2023-10-13T13:36:13;896.80;998.40
26021;DHT22;13798;48.858;9.092;2023-10-13T13:38:43;871.10;1049.60
26021;DHT22;13798;48.858;9.092;2023-10-13T13:41:16;896.40;1024.00
26021;DHT22;13798;48.858;9.092;2023-10-13T13:43:49;922.00;998.40
26021;DHT22;13798;48.858;9.092;2023-10-13T13:46:23;947.30;998.40
26021;DHT22;13798;48.858;9.092;2023-10-13T13:48:58;947.30;972.80
26021;DHT22;13798;48.858;9.092;2023-10-13T13:51:30;947.70;972.80
26021;DHT22;13798;48.858;9.092;2023-10-13T13:53:58;921.60;998.40
26021;DHT22;13798;48.858;9.092;2023-10-13T13:56:26;896.90;998.40
26021;DHT22;13798;48.858;9.092;2023-10-13T13:58:56;922.40;998.40
26021;DHT22;13798;48.858;9.092;2023-10-13T14:01:21;922.10;998.40
26021;DHT22;13798;48.858;9.092;2023-10-13T14:03:49;922.50;1024.00
26021;DHT22;13798;48.858;9.092;2023-10-13T14:06:22;896.70;972.80
26021;DHT22;13798;48.858;9.092;2023-10-13T14:08:56;896.20;1024.00
26021;DHT22;13798;48.858;9.092;2023-10-13T14:11:34;896.40;998.40
26021;DHT22;13798;48.858;9.092;2023-10-13T14:14:10;896.90;972.80
26021;DHT22;13798;48.858;9.092;2023-10-13T14:16:40;921.70;998.40
26021;DHT22;13798;48.858;9.092;2023-10-13T14:19:13;921.90;1024.00
26021;DHT22;13798;48.858;9.092;2023-10-13T14:21:55;947.20;972.80
26021;DHT22;13798;48.858;9.092;2023-10-13T14:24:22;896.70;972.80
26021;DHT22;13798;48.858;9.092;2023-10-13T14:26:54;896.20;947.20
26021;DHT22;13798;48.858;9.092;2023-10-13T14:29:20;870.80;972.80
26021;DHT22;13798;48.858;9.092;2023-10-13T14:31:45;871.10;947.20
26021;DHT22;13798;48.858;9.092;2023-10-13T14:34:14;870.40;972.80
26021;DHT22;13798;48.858;9.092;2023-10-13T14:36:40;870.40;972.80
26021;DHT22;13798;48.858;9.092;2023-10-13T14:39:06;870.60;947.20
26021;DHT22;13798;48.858;9.092;2023-10-13T14:41:37;844.90;1024.00
26021;DHT22;13798;48.858;9.092;2023-10-13T14:44:03;845.20;1024.00
26021;DHT22;13798;48.858;9.092;2023-10-13T14:46:32;845.20;1049.60
26021;DHT22;13798;48.858;9.092;2023-10-13T14:49:01;870.60;998.40
26021;DHT22;13798;48.858;9.092;2023-10-13T14:51:28;845.60;1024.00
26021;DHT22;13798;48.858;9.092;2023-10-13T14:53:54;845.70;998.40
26021;DHT22;13798;48.858;9.092;2023-10-13T14:56:21;844.90;1075.20
26021;DHT22;13798;48.858;9.092;2023-10-13T14:58:50;845.00;1049.60
26021;DHT22;13798;48.858;9.092;2023-10-13T15:01:18;845.20;1075.20
26021;DHT22;13798;48.858;9.092;2023-10-13T15:03:44;845.00;1049.60
26021;DHT22;13798;48.858;9.092;2023-10-13T15:06:23;845.70;1075.20
26021;DHT22;13798;48.858;9.092;2023-10-13T15:08:57;870.70;1024.00
26021;DHT22;13798;48.858;9.092;2023-10-13T15:11:23;870.40;1049.60
26021;DHT22;13798;48.858;9.092;2023-10-13T15:14:01;870.60;1049.60
26021;DHT22;13798;48.858;9.092;2023-10-13T15:16:27;870.80;1049.60
26021;DHT22;13798;48.858;9.092;2023-10-13T15:18:53;870.60;1049.60
26021;DHT22;13798;48.858;9.092;2023-10-13T15:21:26;845.70;1049.60
26021;DHT22;13798;48.858;9.092;2023-10-13T15:23:54;845.10;1100.80
26021;DHT22;13798;48.858;9.092;2023-10-13T15:26:23;845.20;1075.20
26021;DHT22;13798;48.858;9.092;2023-10-13T15:28:49;845.00;1100.80
26021;DHT22;13798;48.858;9.092;2023-10-13T15:31:19;844.90;1100.80
26021;DHT22;13798;48.858;9.092;2023-10-13T15:33:53;820.00;1100.80
26021;DHT22;13798;48.858;9.092;2023-10-13T15:36:20;845.00;1126.40
26021;DHT22;13798;48.858;9.092;2023-10-13T15:38:46;845.00;1126.40
26021;DHT22;13798;48.858;9.092;2023-10-13T15:41:12;819.90;1126.40
26021;DHT22;13798;48.858;9.092;2023-10-13T15:43:37;819.80;1126.40
26021;DHT22;13798;48.858;9.092;2023-10-13T15:46:15;819.40;1152.00
26021;DHT22;13798;48.858;9.092;2023-10-13T15:48:41;794.40;1177.60
26021;DHT22;13798;48.858;9.092;2023-10-13T15:51:12;794.00;1203.20
26021;DHT22;13798;48.858;9.092;2023-10-13T15:53:41;793.70;1203.20
26021;DHT22;13798;48.858;9.092;2023-10-13T15:56:08;768.80;1203.20
26021;DHT22;13798;48.858;9.092;2023-10-13T15:58:38;793.60;1228.80
26021;DHT22;13798;48.858;9.092;2023-10-13T16:01:05;768.40;1203.20
26021;DHT22;13798;48.858;9.092;2023-10-13T16:03:33;743.10;1254.40
26021;DHT22;13798;48.858;9.092;2023-10-13T16:06:02;742.40;1305.60
26021;DHT22;13798;48.858;9.092;2023-10-13T16:08:29;717.60;1305.60
26021;DHT22;13798;48.858;9.092;2023-10-13T16:11:03;716.90;1356.80
26021;DHT22;13798;48.858;9.092;2023-10-13T16:13:33;691.60;1331.20
26021;DHT22;13798;48.858;9.092;2023-10-13T16:15:59;691.80;1305.60
26021;DHT22;13798;48.858;9.092;2023-10-13T16:18:25;666.50;1331.20
26021;DHT22;13798;48.858;9.092;2023-10-13T16:20:51;666.50;1331.20
26021;DHT22;13798;48.858;9.092;2023-10-13T16:23:17;691.20;1356.80
26021;DHT22;13798;48.858;9.092;2023-10-13T16:25:42;666.40;1356.80
26021;DHT22;13798;48.858;9.092;2023-10-13T16:28:09;666.40;1356.80
26021;DHT22;13798;48.858;9.092;2023-10-13T16:30:37;666.10;1356.80
26021;DHT22;13798;48.858;9.092;2023-10-13T16:33:03;666.10;1331.20
26021;DHT22;13798;48.858;9.092;2023-10-13T16:35:28;665.60;1356.80
26021;DHT22;13798;48.858;9.092;2023-10-13T16:37:59;640.90;1331.20
26021;DHT22;13798;48.858;9.092;2023-10-13T16:40:31;640.90;1356.80
26021;DHT22;13798;48.858;9.092;2023-10-13T16:42:57;640.90;1356.80
26021;DHT22;13798;48.858;9.092;2023-10-13T16:45:22;640.90;1356.80
26021;DHT22;13798;48.858;9.092;2023-10-13T16:47:49;640.70;1356.80
26021;DHT22;13798;48.858;9.092;2023-10-13T16:50:16;640.50;1382.40
26021;DHT22;13798;48.858;9.092;2023-10-13T16:52:43;640.70;1356.80
26021;DHT22;13798;48.858;9.092;2023-10-13T16:55:15;640.40;1356.80
26021;DHT22;13798;48.858;9.092;2023-10-13T16:57:43;640.30;1356.80
26021;DHT22;13798;48.858;9.092;2023-10-13T17:00:10;640.20;1356.80
26021;DHT22;13798;48.858;9.092;2023-10-13T17:02:40;640.00;1356.80
26021;DHT22;13798;48.858;9.092;2023-10-13T17:05:10;615.30;1382.40
26021;DHT22;13798;48.858;9.092;2023-10-13T17:07:38;615.10;1382.40
26021;DHT22;13798;48.858;9.092;2023-10-13T17:10:04;615.10;1382.40
26021;DHT22;13798;48.858;9.092;2023-10-13T17:12:30;614.90;1382.40
26021;DHT22;13798;48.858;9.092;2023-10-13T17:14:56;615.00;1382.40
26021;DHT22;13798;48.858;9.092;2023-10-13T17:17:25;615.00;1408.00
26021;DHT22;13798;48.858;9.092;2023-10-13T17:19:51;615.00;1382.40
26021;DHT22;13798;48.858;9.092;2023-10-13T17:22:16;614.60;1433.60
26021;DHT22;13798;48.858;9.092;2023-10-13T17:24:42;614.70;1408.00
26021;DHT22;13798;48.858;9.092;2023-10-13T17:27:08;614.60;1433.60
26021;DHT22;13798;48.858;9.092;2023-10-13T17:29:35;614.60;1433.60
26021;DHT22;13798;48.858;9.092;2023-10-13T17:32:02;589.60;1459.20
26021;DHT22;13798;48.858;9.092;2023-10-13T17:34:28;589.50;1510.40
26021;DHT22;13798;48.858;9.092;2023-10-13T17:36:54;589.50;1510.40
26021;DHT22;13798;48.858;9.092;2023-10-13T17:39:23;589.40;1510.40
26021;DHT22;13798;48.858;9.092;2023-10-13T17:41:49;589.00;1536.00
26021;DHT22;13798;48.858;9.092;2023-10-13T17:44:15;588.90;1561.60
26021;DHT22;13798;48.858;9.092;2023-10-13T17:46:42;564.10;1561.60
26021;DHT22;13798;48.858;9.092;2023-10-13T17:49:08;588.80;1587.20
26021;DHT22;13798;48.858;9.092;2023-10-13T17:51:34;563.90;1638.40
26021;DHT22;13798;48.858;9.092;2023-10-13T17:54:01;563.90;1664.00
26021;DHT22;13798;48.858;9.092;2023-10-13T17:56:27;563.60;1664.00
26021;DHT22;13798;48.858;9.092;2023-10-13T17:58:54;563.50;1664.00
26021;DHT22;13798;48.858;9.092;2023-10-13T18:01:20;563.40;1689.60
26021;DHT22;13798;48.858;9.092;2023-10-13T18:03:47;563.40;1689.60
26021;DHT22;13798;48.858;9.092;2023-10-13T18:06:14;563.20;1715.20
26021;DHT22;13798;48.858;9.092;2023-10-13T18:08:43;563.40;1715.20
26021;DHT22;13798;48.858;9.092;2023-10-13T18:11:10;563.40;1715.20
26021;DHT22;13798;48.858;9.092;2023-10-13T18:13:39;563.30;1766.40
26021;DHT22;13798;48.858;9.092;2023-10-13T18:16:15;538.50;1766.40
26021;DHT22;13798;48.858;9.092;2023-10-13T18:18:41;538.30;1766.40
26021;DHT22;13798;48.858;9.092;2023-10-13T18:21:08;538.10;1843.20
26021;DHT22;13798;48.858;9.092;2023-10-13T18:23:35;537.90;1843.20
26021;DHT22;13798;48.858;9.092;2023-10-13T18:26:01;538.30;1843.20
26021;DHT22;13798;48.858;9.092;2023-10-13T18:28:32;538.00;1868.80
26021;DHT22;13798;48.858;9.092;2023-10-13T18:31:02;537.90;1894.40
26021;DHT22;13798;48.858;9.092;2023-10-13T18:33:32;537.60;1894.40
26021;DHT22;13798;48.858;9.092;2023-10-13T18:36:17;512.80;1868.80
26021;DHT22;13798;48.858;9.092;2023-10-13T18:38:47;512.90;1894.40
26021;DHT22;13798;48.858;9.092;2023-10-13T18:41:14;512.90;1920.00
26021;DHT22;13798;48.858;9.092;2023-10-13T18:43:43;537.80;1945.60
26021;DHT22;13798;48.858;9.092;2023-10-13T18:46:10;538.10;1945.60
26021;DHT22;13798;48.858;9.092;2023-10-13T18:48:36;538.00;1945.60
26021;DHT22;13798;48.858;9.092;2023-10-13T18:51:06;538.20;1971.20
26021;DHT22;13798;48.858;9.092;2023-10-13T18:53:35;538.10;1971.20
26021;DHT22;13798;48.858;9.092;2023-10-13T18:56:07;538.20;1971.20
26021;DHT22;13798;48.858;9.092;2023-10-13T18:58:40;538.20;1971.20
26021;DHT22;13798;48.858;9.092;2023-10-13T19:01:10;538.10;1971.20
26021;DHT22;13798;48.858;9.092;2023-10-13T19:03:38;538.30;1971.20
26021;DHT22;13798;48.858;9.092;2023-10-13T19:06:04;538.20;1971.20
26021;DHT22;13798;48.858;9.092;2023-10-13T19:08:31;538.30;1971.20
26021;DHT22;13798;48.858;9.092;2023-10-13T19:11:04;538.40;1971.20
26021;DHT22;13798;48.858;9.092;2023-10-13T19:13:36;538.40;1971.20
26021;DHT22;13798;48.858;9.092;2023-10-13T19:16:06;538.30;1971.20
26021;DHT22;13798;48.858;9.092;2023-10-13T19:18:33;538.50;1945.60
26021;DHT22;13798;48.858;9.092;2023-10-13T19:21:02;563.20;1945.60
26021;DHT22;13798;48.858;9.092;2023-10-13T19:23:29;563.20;1945.60
26021;DHT22;13798;48.858;9.092;2023-10-13T19:25:54;563.30;1945.60
26021;DHT22;13798;48.858;9.092;2023-10-13T19:28:22;563.20;1945.60
26021;DHT22;13798;48.858;9.092;2023-10-13T19:30:48;563.50;1945.60
26021;DHT22;13798;48.858;9.092;2023-10-13T19:33:14;563.40;1920.00
26021;DHT22;13798;48.858;9.092;2023-10-13T19:35:40;563.40;1920.00
26021;DHT22;13798;48.858;9.092;2023-10-13T19:38:06;563.40;1894.40
26021;DHT22;13798;48.858;9.092;2023-10-13T19:40:34;563.50;1920.00
26021;DHT22;13798;48.858;9.092;2023-10-13T19:43:00;563.40;1894.40
26021;DHT22;13798;48.858;9.092;2023-10-13T19:45:26;563.40;1945.60
26021;DHT22;13798;48.858;9.092;2023-10-13T19:47:52;563.40;1971.20
